createdAt,value
2023-05-02T00:01:42.330Z,5.43
2023-05-02T00:04:09.700Z,5.32
2023-05-02T00:06:37.000Z,4.70
2023-05-02T00:09:04.303Z,4.03
2023-05-02T00:11:38.096Z,4.18
2023-05-02T00:14:08.947Z,4.90
2023-05-02T00:16:36.216Z,4.05
2023-05-02T00:19:04.508Z,4.78
2023-05-02T00:21:33.149Z,3.80
2023-05-02T00:24:01.091Z,3.97
2023-05-02T00:26:29.123Z,4.28
2023-05-02T00:28:56.480Z,3.97
2023-05-02T00:31:23.691Z,4.32
2023-05-02T00:33:51.015Z,3.47
2023-05-02T00:36:20.415Z,4.32
2023-05-02T00:38:47.774Z,4.10
2023-05-02T00:41:17.410Z,3.83
2023-05-02T00:43:45.213Z,3.85
2023-05-02T00:46:13.408Z,4.13
2023-05-02T00:48:41.299Z,3.65
2023-05-02T00:51:13.603Z,4.20
2023-05-02T00:53:41.954Z,4.35
2023-05-02T00:56:10.066Z,4.03
2023-05-02T00:58:39.034Z,5.00
2023-05-02T01:01:35.528Z,3.72
2023-05-02T01:04:13.314Z,4.40
2023-05-02T01:06:47.372Z,4.57
2023-05-02T01:09:42.436Z,4.70
2023-05-02T01:12:48.083Z,3.87
2023-05-02T01:15:22.146Z,4.00
2023-05-02T01:17:52.605Z,3.70
2023-05-02T01:20:23.956Z,3.80
2023-05-02T01:22:52.628Z,3.80
2023-05-02T01:26:04.805Z,3.70
2023-05-02T01:28:47.893Z,3.58
2023-05-02T01:31:16.823Z,3.80
2023-05-02T01:33:46.523Z,3.25
2023-05-02T01:36:16.292Z,3.25
2023-05-02T01:38:45.261Z,3.07
2023-05-02T01:41:13.788Z,3.92
2023-05-02T01:43:41.794Z,3.33
2023-05-02T01:46:10.918Z,3.40
2023-05-02T01:48:38.264Z,3.97
2023-05-02T01:51:07.938Z,3.07
2023-05-02T01:53:36.449Z,3.58
2023-05-02T01:56:04.469Z,3.50
2023-05-02T01:58:33.607Z,3.15
2023-05-02T02:01:01.859Z,3.25
2023-05-02T02:03:31.417Z,3.13
2023-05-02T02:05:59.785Z,3.45
2023-05-02T02:08:27.301Z,2.78
2023-05-02T02:10:59.501Z,3.53
2023-05-02T02:13:42.260Z,3.10
2023-05-02T02:16:13.177Z,3.30
2023-05-02T02:21:36.963Z,3.08
2023-05-02T02:24:07.064Z,2.58
2023-05-02T02:26:35.516Z,2.67
2023-05-02T02:29:04.401Z,3.33
2023-05-02T02:31:33.560Z,3.10
2023-05-02T02:34:01.492Z,2.83
2023-05-02T02:36:40.822Z,2.40
2023-05-02T02:39:16.899Z,2.88
2023-05-02T02:41:54.360Z,2.40
2023-05-02T02:44:40.175Z,2.78
2023-05-02T02:47:16.731Z,3.35
2023-05-02T02:49:50.527Z,3.00
2023-05-02T02:52:40.952Z,2.78
2023-05-02T02:55:16.551Z,3.03
2023-05-02T02:57:55.790Z,2.63
2023-05-02T03:00:27.731Z,2.60
2023-05-02T03:02:56.898Z,2.10
2023-05-02T03:05:24.919Z,2.80
2023-05-02T03:07:52.626Z,2.30
2023-05-02T03:10:19.969Z,2.33
2023-05-02T03:12:47.836Z,2.60
2023-05-02T03:15:41.600Z,2.78
2023-05-02T03:18:08.786Z,2.83
2023-05-02T03:20:36.071Z,2.67
2023-05-02T03:23:03.671Z,2.30
2023-05-02T03:25:30.956Z,2.67
2023-05-02T03:28:20.673Z,2.15
2023-05-02T03:30:47.964Z,2.78
2023-05-02T03:33:15.314Z,2.90
2023-05-02T03:35:42.930Z,2.97
2023-05-02T03:38:10.088Z,3.05
2023-05-02T03:40:37.371Z,2.60
2023-05-02T03:43:05.501Z,2.67
2023-05-02T03:45:32.640Z,3.00
2023-05-02T03:47:59.978Z,2.50
2023-05-02T03:50:27.206Z,2.35
2023-05-02T03:52:54.502Z,2.58
2023-05-02T03:55:21.909Z,2.67
2023-05-02T03:57:49.118Z,2.47
2023-05-02T04:00:16.296Z,2.38
2023-05-02T04:03:02.091Z,2.50
2023-05-02T04:05:29.578Z,2.38
2023-05-02T04:07:57.607Z,2.60
2023-05-02T04:10:24.822Z,2.37
2023-05-02T04:12:52.006Z,2.78
2023-05-02T04:15:19.315Z,2.70
2023-05-02T04:17:46.982Z,2.67
2023-05-02T04:20:14.382Z,2.47
2023-05-02T04:22:42.317Z,2.50
2023-05-02T04:25:09.985Z,2.95
2023-05-02T04:27:37.329Z,2.60
2023-05-02T04:30:04.950Z,2.65
2023-05-02T04:32:32.414Z,2.35
2023-05-02T04:35:02.352Z,2.37
2023-05-02T04:37:29.553Z,2.67
2023-05-02T04:39:57.163Z,2.13
2023-05-02T04:42:25.123Z,2.50
2023-05-02T04:44:53.014Z,2.17
2023-05-02T04:47:20.503Z,2.50
2023-05-02T04:49:47.851Z,2.63
2023-05-02T04:52:15.306Z,2.42
2023-05-02T04:54:42.940Z,2.03
2023-05-02T04:57:11.381Z,2.30
2023-05-02T04:59:38.870Z,2.30
2023-05-02T05:02:26.895Z,2.50
2023-05-02T05:04:54.398Z,2.88
2023-05-02T05:07:21.817Z,2.70
2023-05-02T05:09:50.197Z,2.47
2023-05-02T05:12:19.259Z,2.07
2023-05-02T05:14:46.621Z,2.28
2023-05-02T05:17:14.582Z,2.80
2023-05-02T05:19:41.886Z,2.22
2023-05-02T05:22:10.099Z,2.78
2023-05-02T05:24:37.352Z,2.70
2023-05-02T05:27:04.546Z,3.47
2023-05-02T05:29:33.431Z,2.60
2023-05-02T05:32:00.853Z,2.60
2023-05-02T05:34:28.141Z,2.53
2023-05-02T05:36:58.901Z,2.50
2023-05-02T05:39:26.315Z,2.42
2023-05-02T05:42:23.043Z,2.63
2023-05-02T05:44:50.566Z,2.40
2023-05-02T05:47:24.497Z,2.80
2023-05-02T05:49:55.650Z,2.47
2023-05-02T05:52:23.259Z,2.17
2023-05-02T05:54:57.860Z,2.38
2023-05-02T05:57:27.226Z,2.40
2023-05-02T05:59:54.850Z,2.78
2023-05-02T06:02:23.457Z,2.50
2023-05-02T06:04:51.481Z,2.20
2023-05-02T06:07:18.930Z,2.70
2023-05-02T06:09:46.293Z,3.03
2023-05-02T06:12:13.609Z,2.42
2023-05-02T06:14:41.297Z,2.43
2023-05-02T06:17:08.631Z,2.28
2023-05-02T06:19:36.238Z,2.95
2023-05-02T06:22:03.670Z,2.45
2023-05-02T06:24:31.363Z,2.25
2023-05-02T06:26:59.663Z,2.80
2023-05-02T06:29:29.441Z,2.83
2023-05-02T06:31:57.464Z,2.20
2023-05-02T06:34:25.070Z,3.00
2023-05-02T06:36:58.793Z,2.60
2023-05-02T06:39:26.556Z,2.17
2023-05-02T06:42:00.556Z,2.17
2023-05-02T06:44:27.881Z,2.65
2023-05-02T06:46:58.297Z,2.28
2023-05-02T06:49:27.081Z,2.45
2023-05-02T06:51:54.230Z,2.10
2023-05-02T06:54:22.103Z,2.42
2023-05-02T06:56:49.432Z,2.53
2023-05-02T06:59:18.970Z,2.30
2023-05-02T07:01:46.323Z,2.55
2023-05-02T07:04:13.678Z,2.27
2023-05-02T07:06:43.543Z,2.55
2023-05-02T07:09:11.025Z,2.22
2023-05-02T07:11:38.478Z,2.20
2023-05-02T07:14:05.696Z,2.70
2023-05-02T07:16:35.854Z,2.07
2023-05-02T07:19:04.880Z,2.28
2023-05-02T07:21:32.880Z,2.10
2023-05-02T07:24:00.555Z,2.10
2023-05-02T07:26:31.266Z,2.25
2023-05-02T07:28:58.636Z,2.23
2023-05-02T07:44:51.128Z,2.17
2023-05-02T07:47:18.302Z,1.95
2023-05-02T07:49:45.558Z,2.20
2023-05-02T07:52:12.624Z,2.00
2023-05-02T07:54:39.847Z,2.22
2023-05-02T07:57:08.932Z,2.25
2023-05-02T07:59:36.164Z,2.78
2023-05-02T08:02:05.991Z,2.10
2023-05-02T08:04:33.813Z,1.80
2023-05-02T08:07:01.542Z,2.30
2023-05-02T08:09:29.782Z,2.63
2023-05-02T08:11:57.431Z,2.40
2023-05-02T08:14:24.743Z,2.72
2023-05-02T08:16:52.086Z,2.47
2023-05-02T08:19:19.623Z,2.13
2023-05-02T08:21:46.845Z,2.60
2023-05-02T08:24:14.345Z,2.55
2023-05-02T08:26:41.737Z,2.20
2023-05-02T08:29:11.867Z,2.40
2023-05-02T08:31:42.384Z,2.47
2023-05-02T08:34:10.980Z,2.80
2023-05-02T08:36:38.438Z,2.40
2023-05-02T08:39:08.284Z,2.15
2023-05-02T08:41:35.919Z,2.20
2023-05-02T08:44:04.610Z,2.70
2023-05-02T08:46:35.577Z,2.55
2023-05-02T08:49:03.896Z,2.97
2023-05-02T08:51:33.044Z,2.50
2023-05-02T08:54:07.893Z,2.40
2023-05-02T08:56:35.132Z,2.35
2023-05-02T08:59:04.737Z,3.00
2023-05-02T09:01:36.980Z,2.80
2023-05-02T09:04:05.087Z,2.20
2023-05-02T09:06:33.124Z,2.50
2023-05-02T09:09:00.952Z,2.13
2023-05-02T09:11:28.208Z,2.08
2023-05-02T09:14:04.197Z,2.30
2023-05-02T09:16:39.460Z,2.60
2023-05-02T09:19:06.631Z,2.30
2023-05-02T09:21:40.403Z,2.22
2023-05-02T09:24:21.519Z,2.70
2023-05-02T09:27:03.304Z,2.97
2023-05-02T09:29:36.416Z,2.55
2023-05-02T09:32:12.542Z,2.43
2023-05-02T09:34:40.049Z,2.28
2023-05-02T09:37:07.369Z,2.50
2023-05-02T09:39:34.693Z,2.40
2023-05-02T09:42:03.944Z,2.30
2023-05-02T09:57:54.731Z,2.23
2023-05-02T10:00:22.573Z,2.10
2023-05-02T10:02:51.831Z,2.50
2023-05-02T10:05:23.861Z,2.60
2023-05-02T10:07:51.350Z,2.70
2023-05-02T10:10:19.147Z,2.90
2023-05-02T10:12:48.499Z,3.70
2023-05-02T10:15:22.701Z,2.90
2023-05-02T10:17:52.289Z,2.67
2023-05-02T10:20:23.959Z,2.87
2023-05-02T10:22:51.964Z,2.47
2023-05-02T10:25:19.797Z,2.60
2023-05-02T10:27:48.836Z,2.80
2023-05-02T10:30:26.412Z,3.00
2023-05-02T10:32:54.836Z,2.40
2023-05-02T10:35:24.904Z,2.67
2023-05-02T10:37:53.145Z,2.60
2023-05-02T10:40:24.952Z,2.25
2023-05-02T10:42:53.391Z,2.28
2023-05-02T10:45:38.332Z,2.60
2023-05-02T10:48:23.574Z,2.60
2023-05-02T10:50:56.090Z,2.33
2023-05-02T10:53:40.099Z,2.78
2023-05-02T10:56:22.575Z,2.42
2023-05-02T10:58:52.246Z,2.70
2023-05-02T11:01:27.514Z,2.30
2023-05-02T11:03:58.382Z,2.60
2023-05-02T11:06:27.936Z,2.13
2023-05-02T11:09:17.073Z,3.53
2023-05-02T11:11:48.559Z,3.00
2023-05-02T11:14:31.290Z,2.35
2023-05-02T11:17:05.802Z,2.90
2023-05-02T11:19:46.857Z,2.30
2023-05-02T11:22:27.251Z,2.10
2023-05-02T11:24:54.835Z,2.30
2023-05-02T11:27:31.615Z,2.15
2023-05-02T11:30:00.654Z,2.25
2023-05-02T11:32:53.790Z,2.55
2023-05-02T11:35:27.100Z,2.30
2023-05-02T11:38:03.330Z,1.97
2023-05-02T11:40:33.691Z,2.63
2023-05-02T11:43:01.716Z,2.10
2023-05-02T11:45:45.660Z,2.03
2023-05-02T11:48:14.988Z,1.90
2023-05-02T11:50:50.503Z,2.07
2023-05-02T11:53:23.601Z,1.80
2023-05-02T11:55:56.036Z,2.13
2023-05-02T11:58:33.078Z,2.03
2023-05-02T12:01:15.176Z,1.90
2023-05-02T12:03:43.184Z,2.17
2023-05-02T12:06:20.811Z,2.22
2023-05-02T12:08:49.625Z,2.25
2023-05-02T12:11:17.603Z,1.95
2023-05-02T12:13:50.523Z,2.00
2023-05-02T12:16:50.411Z,2.00
2023-05-02T12:19:10.612Z,1.67
2023-05-02T12:21:41.544Z,2.30
2023-05-02T12:24:25.817Z,2.13
2023-05-02T12:27:12.794Z,2.25
2023-05-02T12:29:47.312Z,2.27
2023-05-02T12:32:16.875Z,1.88
2023-05-02T12:34:44.596Z,1.85
2023-05-02T12:37:25.819Z,1.85
2023-05-02T12:39:55.917Z,2.20
2023-05-02T12:42:25.798Z,2.30
2023-05-02T12:44:55.136Z,2.63
2023-05-02T12:47:26.644Z,2.28
2023-05-02T12:49:56.702Z,2.70
2023-05-02T12:53:01.049Z,2.20
2023-05-02T12:55:29.980Z,2.00
2023-05-02T12:58:08.098Z,1.77
2023-05-02T13:00:45.747Z,2.33
2023-05-02T13:03:23.880Z,2.10
2023-05-02T13:05:54.821Z,2.38
2023-05-02T13:08:22.294Z,2.40
2023-05-02T13:10:49.683Z,2.10
2023-05-02T13:13:17.105Z,2.72
2023-05-02T13:15:44.605Z,2.00
2023-05-02T13:18:12.138Z,2.30
2023-05-02T13:20:39.668Z,2.23
2023-05-02T13:23:06.914Z,2.25
2023-05-02T13:25:34.274Z,2.60
2023-05-02T13:28:01.698Z,1.85
2023-05-02T13:30:29.225Z,2.10
2023-05-02T13:32:58.562Z,2.20
2023-05-02T13:35:26.635Z,3.30
2023-05-02T13:37:53.876Z,2.42
2023-05-02T13:40:21.268Z,3.28
2023-05-02T13:42:48.637Z,2.03
2023-05-02T13:45:19.196Z,2.10
2023-05-02T13:47:46.612Z,1.90
2023-05-02T13:50:14.243Z,2.00
2023-05-02T13:52:41.846Z,2.10
2023-05-02T13:55:09.602Z,2.00
2023-05-02T13:57:36.821Z,2.30
2023-05-02T14:00:04.990Z,1.90
2023-05-02T14:02:32.871Z,1.95
2023-05-02T14:05:00.358Z,2.00
2023-05-02T14:07:27.511Z,2.00
2023-05-02T14:09:54.756Z,2.10
2023-05-02T14:12:22.165Z,2.60
2023-05-02T14:14:49.451Z,2.20
2023-05-02T14:17:16.882Z,1.83
2023-05-02T14:19:44.191Z,2.20
2023-05-02T14:22:11.599Z,2.20
2023-05-02T14:24:38.814Z,2.20
2023-05-02T14:27:07.920Z,2.03
2023-05-02T14:29:37.979Z,2.10
2023-05-02T14:32:05.653Z,2.20
2023-05-02T14:34:33.103Z,2.20
2023-05-02T14:37:00.416Z,2.10
2023-05-02T14:39:27.980Z,2.33
2023-05-02T14:41:55.156Z,2.30
2023-05-02T14:44:22.523Z,1.98
2023-05-02T14:46:49.782Z,1.80
2023-05-02T14:49:17.153Z,2.00
2023-05-02T14:51:47.485Z,2.33
2023-05-02T14:54:17.002Z,2.10
2023-05-02T14:56:44.671Z,1.77
2023-05-02T14:59:12.027Z,2.17
2023-05-02T15:01:41.205Z,2.53
2023-05-02T15:04:08.955Z,2.10
2023-05-02T15:06:36.882Z,2.20
2023-05-02T15:09:05.196Z,2.22
2023-05-02T15:11:32.486Z,2.17
2023-05-02T15:13:59.891Z,2.88
2023-05-02T15:16:27.655Z,2.20
2023-05-02T15:18:55.197Z,2.10
2023-05-02T15:21:23.169Z,2.60
2023-05-02T15:23:53.309Z,2.10
2023-05-02T15:26:20.565Z,2.20
2023-05-02T15:28:47.701Z,2.10
2023-05-02T15:31:15.019Z,1.92
2023-05-02T15:33:42.132Z,2.17
2023-05-02T15:36:09.453Z,2.10
2023-05-02T15:38:39.518Z,1.90
2023-05-02T15:41:08.272Z,2.17
2023-05-02T15:43:41.217Z,1.80
2023-05-02T15:46:08.744Z,2.05
2023-05-02T15:48:36.113Z,2.00
2023-05-02T15:51:05.706Z,1.90
2023-05-02T15:53:33.197Z,2.38
2023-05-02T15:56:00.508Z,1.77
2023-05-02T15:58:30.358Z,2.42
2023-05-02T16:04:28.958Z,1.90
2023-05-02T16:07:11.052Z,2.30
2023-05-02T16:24:20.187Z,2.15
2023-05-02T16:26:48.435Z,3.20
2023-05-02T16:29:15.896Z,4.57
2023-05-02T16:31:44.527Z,2.63
2023-05-02T16:34:12.234Z,2.85
2023-05-02T16:36:39.374Z,2.42
2023-05-02T16:39:06.974Z,2.67
2023-05-02T16:41:36.257Z,2.67
2023-05-02T16:44:03.727Z,2.60
2023-05-02T16:46:32.410Z,2.67
2023-05-02T16:48:59.863Z,2.78
2023-05-02T16:51:28.023Z,2.83
2023-05-02T16:53:58.580Z,2.85
2023-05-02T16:56:27.349Z,2.70
2023-05-02T16:58:58.500Z,3.03
2023-05-02T17:01:25.874Z,3.28
2023-05-02T17:03:53.238Z,3.10
2023-05-02T17:06:20.507Z,3.13
2023-05-02T17:21:58.592Z,2.90
2023-05-02T17:24:26.578Z,3.33
2023-05-02T17:26:54.189Z,4.27
2023-05-02T17:29:21.771Z,4.43
2023-05-02T17:31:49.419Z,11.30
2023-05-02T17:34:17.036Z,6.60
2023-05-02T17:37:05.425Z,11.68
2023-05-02T17:39:32.779Z,8.47
2023-05-02T17:42:00.097Z,5.88
2023-05-02T17:44:27.632Z,6.00
2023-05-02T17:47:23.032Z,12.30
2023-05-02T17:49:51.526Z,11.30
2023-05-02T17:52:19.164Z,4.40
2023-05-02T17:58:54.308Z,5.60
2023-05-02T18:01:21.891Z,3.40
2023-05-02T18:03:52.299Z,3.92
2023-05-02T18:06:19.736Z,3.70
2023-05-02T18:08:46.926Z,3.53
2023-05-02T18:11:23.877Z,3.80
2023-05-02T18:13:51.648Z,4.40
2023-05-02T18:16:19.697Z,4.55
2023-05-02T18:18:47.123Z,3.67
2023-05-02T18:21:21.734Z,4.00
2023-05-02T18:23:49.213Z,3.85
2023-05-02T18:26:16.393Z,4.22
2023-05-02T18:28:45.290Z,4.95
2023-05-02T18:31:20.027Z,7.70
2023-05-02T18:33:47.438Z,6.13
2023-05-02T18:36:19.428Z,6.20
2023-05-02T18:38:46.992Z,6.28
2023-05-02T18:41:14.336Z,5.55
2023-05-02T18:43:41.764Z,4.03
2023-05-02T18:46:09.554Z,4.32
2023-05-02T18:48:54.206Z,6.47
2023-05-02T18:51:21.907Z,5.40
2023-05-02T18:53:49.314Z,3.67
2023-05-02T18:56:19.731Z,3.97
2023-05-02T18:58:47.898Z,3.70
2023-05-02T19:01:17.098Z,3.38
2023-05-02T19:03:44.643Z,4.43
2023-05-02T19:06:44.209Z,5.45
2023-05-02T19:09:13.802Z,4.10
2023-05-02T19:11:41.870Z,3.08
2023-05-02T19:14:09.563Z,3.35
2023-05-02T19:16:40.217Z,4.50
2023-05-02T19:19:08.150Z,4.75
2023-05-02T19:21:35.661Z,3.00
2023-05-02T19:24:03.998Z,2.97
2023-05-02T19:26:31.886Z,3.50
2023-05-02T19:28:59.627Z,3.33
2023-05-02T19:31:27.226Z,4.00
2023-05-02T19:33:55.404Z,3.07
2023-05-02T19:36:24.776Z,3.00
2023-05-02T19:38:58.480Z,3.28
2023-05-02T19:41:26.403Z,3.97
2023-05-02T19:43:55.901Z,3.30
2023-05-02T19:46:23.504Z,2.90
2023-05-02T19:48:50.944Z,2.88
2023-05-02T19:51:25.628Z,2.72
2023-05-02T19:53:54.079Z,3.22
2023-05-02T19:56:21.979Z,2.78
2023-05-02T19:58:49.386Z,2.33
2023-05-02T20:01:17.355Z,3.10
2023-05-02T20:03:49.273Z,2.88
2023-05-02T20:06:16.776Z,2.88
2023-05-02T20:09:04.324Z,2.80
2023-05-02T20:11:32.985Z,2.77
2023-05-02T20:14:00.564Z,3.10
2023-05-02T20:16:28.731Z,3.15
2023-05-02T20:18:59.371Z,3.13
2023-05-02T20:21:27.192Z,4.03
2023-05-02T20:23:54.461Z,3.57
2023-05-02T20:26:21.586Z,2.47
2023-05-02T20:28:52.112Z,2.85
2023-05-02T20:31:19.375Z,2.78
2023-05-02T20:33:46.574Z,3.22
2023-05-02T20:36:15.152Z,2.87
2023-05-02T20:38:43.095Z,2.78
2023-05-02T20:41:14.261Z,2.92
2023-05-02T20:43:45.221Z,3.25
2023-05-02T20:46:16.516Z,2.72
2023-05-02T20:48:43.958Z,2.47
2023-05-02T20:51:11.088Z,3.50
2023-05-02T20:53:38.804Z,3.17
2023-05-02T20:56:06.416Z,3.20
2023-05-02T20:58:33.778Z,3.28
2023-05-02T21:01:01.054Z,2.97
2023-05-02T21:03:28.768Z,3.20
2023-05-02T21:05:57.351Z,3.20
2023-05-02T21:08:24.917Z,2.70
2023-05-02T21:10:53.429Z,3.20
2023-05-02T21:13:22.042Z,2.40
2023-05-02T21:15:49.394Z,2.75
2023-05-02T21:18:16.726Z,2.80
2023-05-02T21:20:44.618Z,2.72
2023-05-02T21:23:12.254Z,2.85
2023-05-02T21:25:39.438Z,2.43
2023-05-02T21:28:06.621Z,2.03
2023-05-02T21:30:33.980Z,2.22
2023-05-02T21:33:01.250Z,2.35
2023-05-02T21:35:29.000Z,2.45
2023-05-02T21:37:56.165Z,2.27
2023-05-02T21:40:23.296Z,2.65
2023-05-02T21:42:50.369Z,2.40
2023-05-02T21:45:17.531Z,2.40
2023-05-02T21:47:44.926Z,7.80
2023-05-02T21:50:12.327Z,4.93
2023-05-02T21:52:42.050Z,5.10
2023-05-02T21:55:09.410Z,5.57
2023-05-02T21:57:36.654Z,3.78
2023-05-02T22:00:05.393Z,5.03
2023-05-02T22:02:39.027Z,6.20
2023-05-02T22:05:06.387Z,6.82
2023-05-02T22:07:34.127Z,7.65
2023-05-02T22:10:01.572Z,7.78
2023-05-02T22:12:29.031Z,7.68
2023-05-02T22:14:56.177Z,8.70
2023-05-02T22:17:23.506Z,10.75
2023-05-02T22:19:52.509Z,9.43
2023-05-02T22:22:19.790Z,9.00
2023-05-02T22:24:47.085Z,7.97
2023-05-02T22:27:14.424Z,7.87
2023-05-02T22:29:41.571Z,7.93
2023-05-02T22:32:08.922Z,5.88
2023-05-02T22:34:36.122Z,6.13
2023-05-02T22:37:03.318Z,6.13
2023-05-02T22:39:30.946Z,5.10
2023-05-02T22:41:59.871Z,4.47
2023-05-02T22:44:27.059Z,4.88
2023-05-02T22:46:54.408Z,4.78
2023-05-02T22:49:21.531Z,4.30
2023-05-02T22:51:49.362Z,5.27
2023-05-02T22:54:17.028Z,4.38
2023-05-02T22:56:45.787Z,5.10
2023-05-02T22:59:13.016Z,5.47
2023-05-02T23:01:40.243Z,6.18
2023-05-02T23:04:07.792Z,6.70
2023-05-02T23:06:35.040Z,6.60
2023-05-02T23:09:02.330Z,5.85
2023-05-02T23:11:29.555Z,7.63
2023-05-02T23:13:56.761Z,7.75
2023-05-02T23:16:25.618Z,6.10
2023-05-02T23:18:52.952Z,6.45
2023-05-02T23:21:20.106Z,6.75
2023-05-02T23:23:47.326Z,6.10
2023-05-02T23:26:14.466Z,6.05
2023-05-02T23:28:41.716Z,6.70
2023-05-02T23:31:09.467Z,6.32
2023-05-02T23:33:36.807Z,6.30
2023-05-02T23:36:04.442Z,6.40
2023-05-02T23:38:31.796Z,5.70
2023-05-02T23:40:59.087Z,6.10
2023-05-02T23:43:26.985Z,5.75
2023-05-02T23:45:54.168Z,4.78
2023-05-02T23:48:21.284Z,5.57
2023-05-02T23:50:48.581Z,7.68
2023-05-02T23:53:16.358Z,5.23
2023-05-02T23:55:43.691Z,6.60
2023-05-02T23:58:10.932Z,5.53
